Decoded Metar for LFOV (LAVAL in FRANCE) (IATA:LVA) | Meteo·Mobile Aviation Weather
aviador You're here:

LFOV Decoded Metar

LAVAL in FRANCE
Report Time2019-04-20 10:00:00
UTC Time2019-04-20 10:14:18
Flight Rules vfr VFR
Wind040° at 10 kt
W.Decomp.*RWY 32: 1.6 kt HW 9.9 kt RCW
Visibility9999 m
Phenomena:N/A
Clouds:N/A
Expected CloudBase > 4,000 ft AGL from Temp-Dew spread
CeilingNone
Temp21°C (ISA +7)
Dew Point11°C (53% RH)
AAT17.7°C
QNH1025 hPa
Density Alt866 ft
Elevation318 ft
Report Wrong Elevation
Raw Report
METAR LFOV 201000Z AUTO 04010KT 350V070 CAVOK 21/11 Q1025=

Extra information for LFOV:More info

Metar Taf Metar & Taf Last 4 Metars F.Rules Stats Wind Profile Meteogram Temp Stats Airport Information Weather charts Add Link Nearby VenuesMetar ALERT Operation Metar Decoded Social comments